Alpena — WAV4647 — position and weather

sailwx.info

Track history (hours):
 
Tides and Currents Weather Stations Pressure Air Temp Water Temp Dewpoint Dewpoint Depression Visibility Wind Speed Wind Dir Waves Ship Positions

Alpena

Owner: INLAND LAKES MANAGEMENT, Muskegon, MI. More information available from US FCC via Universal Licensing System and Coast Guard Vessel Documentation Center.

Last reported at 2017-Oct-18 03:00 UTC. Time now 2017-Oct-20 01:42 UTC.
Position N 45°18' W 081°30'.

Length 154 m; draft 7.3 m.

Type: Cargo ship. MMSI: 366893910.

Wind from 270 at 12 knots

Barometer 1018.3 mb
Air temperature 14.0 ° C
Visibility: greater than 10.8 NM

Date/timePositionNaut miles runAvg speedWind from/ knotsBaromVisibWave heightAir tempDewpointWater temp
2017-Oct-18 03:00N 45°18' W 081°30'80 2.5 270 / 121018.310.8 14.0
2017-Oct-16 19:33N 45°20' W 083°23'112.4
2017-Oct-16 19:28N 45°21' W 083°24'612.3
2017-Oct-16 19:00N 45°24' W 083°31'612.5
2017-Oct-16 18:30N 45°27' W 083°39'612.4
2017-Oct-16 18:00N 45°30' W 083°46'9632.3
2017-Oct-16 18:00N 45°24' W 083°36'1632.3 210 / 131022.8
2017-Oct-16 17:30N 45°33' W 083°54'612.5
2017-Oct-16 17:00N 45°36' W 084°02'912.2
2017-Oct-16 16:14N 45°40' W 084°14'312.0
2017-Oct-16 16:00N 45°41' W 084°18'611.8
2017-Oct-16 15:30N 45°42' W 084°26'612.2
2017-Oct-16 15:00N 45°45' W 084°34'1212.0
2017-Oct-16 14:00N 45°49' W 084°50'3220.7
2017-Oct-16 14:00N 45°48' W 084°54'4 7.9 190 / 201023.6 5.4 7.0 15.0
2017-Oct-16 13:30N 45°50' W 084°58'612.3
2017-Oct-16 13:00N 45°51' W 085°07'612.5
2017-Oct-16 12:30N 45°52' W 085°16'612.5
2017-Oct-16 12:00N 45°53' W 085°25'612.6
2017-Oct-16 11:30N 45°54' W 085°34'612.3
2017-Oct-16 11:00N 45°51' W 085°42'612.3
2017-Oct-16 10:30N 45°48' W 085°50'712.4
2017-Oct-16 09:56N 45°45' W 085°59'33 0.7
2017-Oct-14 08:29N 45°52' W 085°12'611.6
2017-Oct-14 08:00N 45°51' W 085°04'611.7
2017-Oct-14 07:30N 45°50' W 084°56'711.9
2017-Oct-14 06:55N 45°49' W 084°46'511.5
2017-Oct-14 06:26N 45°47' W 084°38'1311.3
2017-Oct-14 05:16N 45°41' W 084°21'2011.1
2017-Oct-14 03:28N 45°34' W 083°55'612.0
2017-Oct-14 03:00N 45°31' W 083°48'4423.8
2017-Oct-14 03:00N 45°30' W 083°42'2 4.3 270 / 131020.7 5.4 15.0
2017-Oct-14 02:29N 45°29' W 083°40'612.0
2017-Oct-14 02:00N 45°26' W 083°32'62 5.2
2017-Oct-13 14:00N 44°30' W 082°54'   220 / 171021.5 15.0
2017-Oct-10 15:00N 41°42' W 082°24'108 4.5 050 / 111022.0 5.4 18.0
2017-Oct-09 15:00N 43°30' W 082°24'10325.7 290 / 51012.810.8 18.0
2017-Oct-09 11:00N 45°12' W 082°42'31 2.3 250 / 51011.310.8 17.0
2017-Oct-08 21:26N 45°21' W 083°24'511.3
2017-Oct-08 21:00N 45°24' W 083°29'7452.4
2017-Oct-08 21:00N 45°18' W 083°24'1225.0 150 / 201008.910.8 18.0
2017-Oct-08 20:30N 45°26' W 083°36'611.9
2017-Oct-08 20:00N 45°29' W 083°44'611.9
2017-Oct-08 19:30N 45°32' W 083°51'611.8
2017-Oct-08 19:00N 45°35' W 083°59'611.9
2017-Oct-08 18:30N 45°37' W 084°07'612.4
2017-Oct-08 18:00N 45°40' W 084°14'611.7
2017-Oct-08 17:30N 45°41' W 084°23'612.3
2017-Oct-08 17:00N 45°43' W 084°31'612.4
2017-Oct-08 16:30N 45°47' W 084°38'612.4
2017-Oct-08 16:00N 45°49' W 084°46'3219.1
2017-Oct-08 16:00N 45°48' W 084°42'919.6 250 / 151009.010.8 18.0
2017-Oct-08 15:30N 45°50' W 084°55'612.5
2017-Oct-08 15:00N 45°51' W 085°04'612.1
2017-Oct-08 14:30N 45°52' W 085°13'612.3
2017-Oct-08 14:00N 45°52' W 085°22'5313.9
2017-Oct-08 14:00N 45°48' W 085°24'714.1 250 / 141007.6 5.4 16.0
2017-Oct-08 13:30N 45°53' W 085°30'612.4
2017-Oct-08 13:00N 45°53' W 085°39'612.4
2017-Oct-08 12:30N 45°50' W 085°47'612.0
2017-Oct-08 12:00N 45°47' W 085°55'7210.2
2017-Oct-08 05:00N 45°12' W 087°24'   300 / 10997.510.8 17.0
Track history (hours):
 
Tides and Currents Weather Stations Pressure Air Temp Water Temp Dewpoint Dewpoint Depression Visibility Wind Speed Wind Dir Waves Ship Positions

Alpena

Owner: INLAND LAKES MANAGEMENT, Muskegon, MI. More information available from US FCC via Universal Licensing System and Coast Guard Vessel Documentation Center.

Last reported at 2017-Oct-18 03:00 UTC. Time now 2017-Oct-20 01:42 UTC.
Position N 45°18' W 081°30'.

Length 154 m; draft 7.3 m.

Type: Cargo ship. MMSI: 366893910.

Wind from 270 at 12 knots

Barometer 1018.3 mb
Air temperature 14.0 ° C
Visibility: greater than 10.8 NM

Date/timePositionNaut miles runAvg speedWind from/ knotsBaromVisibWave heightAir tempDewpointWater temp
2017-Oct-18 03:00N 45°18' W 081°30'80 2.5 270 / 121018.310.8 14.0
2017-Oct-16 19:33N 45°20' W 083°23'112.4
2017-Oct-16 19:28N 45°21' W 083°24'612.3
2017-Oct-16 19:00N 45°24' W 083°31'612.5
2017-Oct-16 18:30N 45°27' W 083°39'612.4
2017-Oct-16 18:00N 45°30' W 083°46'9632.3
2017-Oct-16 18:00N 45°24' W 083°36'1632.3 210 / 131022.8
2017-Oct-16 17:30N 45°33' W 083°54'612.5
2017-Oct-16 17:00N 45°36' W 084°02'912.2
2017-Oct-16 16:14N 45°40' W 084°14'312.0
2017-Oct-16 16:00N 45°41' W 084°18'611.8
2017-Oct-16 15:30N 45°42' W 084°26'612.2
2017-Oct-16 15:00N 45°45' W 084°34'1212.0
2017-Oct-16 14:00N 45°49' W 084°50'3220.7
2017-Oct-16 14:00N 45°48' W 084°54'4 7.9 190 / 201023.6 5.4 7.0 15.0
2017-Oct-16 13:30N 45°50' W 084°58'612.3
2017-Oct-16 13:00N 45°51' W 085°07'612.5
2017-Oct-16 12:30N 45°52' W 085°16'612.5
2017-Oct-16 12:00N 45°53' W 085°25'612.6
2017-Oct-16 11:30N 45°54' W 085°34'612.3
2017-Oct-16 11:00N 45°51' W 085°42'612.3
2017-Oct-16 10:30N 45°48' W 085°50'712.4
2017-Oct-16 09:56N 45°45' W 085°59'33 0.7
2017-Oct-14 08:29N 45°52' W 085°12'611.6
2017-Oct-14 08:00N 45°51' W 085°04'611.7
2017-Oct-14 07:30N 45°50' W 084°56'711.9
2017-Oct-14 06:55N 45°49' W 084°46'511.5
2017-Oct-14 06:26N 45°47' W 084°38'1311.3
2017-Oct-14 05:16N 45°41' W 084°21'2011.1
2017-Oct-14 03:28N 45°34' W 083°55'612.0
2017-Oct-14 03:00N 45°31' W 083°48'4423.8
2017-Oct-14 03:00N 45°30' W 083°42'2 4.3 270 / 131020.7 5.4 15.0
2017-Oct-14 02:29N 45°29' W 083°40'612.0
2017-Oct-14 02:00N 45°26' W 083°32'62 5.2
2017-Oct-13 14:00N 44°30' W 082°54'   220 / 171021.5 15.0
2017-Oct-10 15:00N 41°42' W 082°24'108 4.5 050 / 111022.0 5.4 18.0
2017-Oct-09 15:00N 43°30' W 082°24'10325.7 290 / 51012.810.8 18.0
2017-Oct-09 11:00N 45°12' W 082°42'31 2.3 250 / 51011.310.8 17.0
2017-Oct-08 21:26N 45°21' W 083°24'511.3
2017-Oct-08 21:00N 45°24' W 083°29'7452.4
2017-Oct-08 21:00N 45°18' W 083°24'1225.0 150 / 201008.910.8 18.0
2017-Oct-08 20:30N 45°26' W 083°36'611.9
2017-Oct-08 20:00N 45°29' W 083°44'611.9
2017-Oct-08 19:30N 45°32' W 083°51'611.8
2017-Oct-08 19:00N 45°35' W 083°59'611.9
2017-Oct-08 18:30N 45°37' W 084°07'612.4
2017-Oct-08 18:00N 45°40' W 084°14'611.7
2017-Oct-08 17:30N 45°41' W 084°23'612.3
2017-Oct-08 17:00N 45°43' W 084°31'612.4
2017-Oct-08 16:30N 45°47' W 084°38'612.4
2017-Oct-08 16:00N 45°49' W 084°46'3219.1
2017-Oct-08 16:00N 45°48' W 084°42'919.6 250 / 151009.010.8 18.0
2017-Oct-08 15:30N 45°50' W 084°55'612.5
2017-Oct-08 15:00N 45°51' W 085°04'612.1
2017-Oct-08 14:30N 45°52' W 085°13'612.3
2017-Oct-08 14:00N 45°52' W 085°22'5313.9
2017-Oct-08 14:00N 45°48' W 085°24'714.1 250 / 141007.6 5.4 16.0
2017-Oct-08 13:30N 45°53' W 085°30'612.4
2017-Oct-08 13:00N 45°53' W 085°39'612.4
2017-Oct-08 12:30N 45°50' W 085°47'612.0
2017-Oct-08 12:00N 45°47' W 085°55'7210.2
2017-Oct-08 05:00N 45°12' W 087°24'   300 / 10997.510.8 17.0

Dump ship's entire track history